sensor_id;sensor_type;location;lat;lon;timestamp;temperature;humidity
1359;DHT22;673;48.098;14.422;2022-10-22T00:02:12;9.70;99.90
1359;DHT22;673;48.098;14.422;2022-10-22T00:04:44;9.60;99.90
1359;DHT22;673;48.098;14.422;2022-10-22T00:07:15;9.50;99.90
1359;DHT22;673;48.098;14.422;2022-10-22T00:09:44;9.60;99.90
1359;DHT22;673;48.098;14.422;2022-10-22T00:12:14;9.50;99.90
1359;DHT22;673;48.098;14.422;2022-10-22T00:14:41;9.50;99.90
1359;DHT22;673;48.098;14.422;2022-10-22T00:17:09;9.60;99.90
1359;DHT22;673;48.098;14.422;2022-10-22T00:19:35;9.50;99.90
1359;DHT22;673;48.098;14.422;2022-10-22T00:22:02;9.50;99.90
1359;DHT22;673;48.098;14.422;2022-10-22T00:24:31;9.50;99.90
1359;DHT22;673;48.098;14.422;2022-10-22T00:26:58;9.60;99.90
1359;DHT22;673;48.098;14.422;2022-10-22T00:29:26;9.70;99.90
1359;DHT22;673;48.098;14.422;2022-10-22T00:31:54;9.60;99.90
1359;DHT22;673;48.098;14.422;2022-10-22T00:34:22;9.60;99.90
1359;DHT22;673;48.098;14.422;2022-10-22T00:36:50;9.60;99.90
1359;DHT22;673;48.098;14.422;2022-10-22T00:39:19;9.60;99.90
1359;DHT22;673;48.098;14.422;2022-10-22T00:41:48;9.50;99.90
1359;DHT22;673;48.098;14.422;2022-10-22T00:47:22;9.50;99.90
1359;DHT22;673;48.098;14.422;2022-10-22T00:49:51;9.50;99.90
1359;DHT22;673;48.098;14.422;2022-10-22T00:52:18;9.50;99.90
1359;DHT22;673;48.098;14.422;2022-10-22T00:54:46;9.50;99.90
1359;DHT22;673;48.098;14.422;2022-10-22T00:57:13;9.50;99.90
1359;DHT22;673;48.098;14.422;2022-10-22T00:59:41;9.50;99.90
1359;DHT22;673;48.098;14.422;2022-10-22T01:02:08;9.40;99.90
1359;DHT22;673;48.098;14.422;2022-10-22T01:04:37;9.40;99.90
1359;DHT22;673;48.098;14.422;2022-10-22T01:07:04;9.40;99.90
1359;DHT22;673;48.098;14.422;2022-10-22T01:09:36;9.40;99.90
1359;DHT22;673;48.098;14.422;2022-10-22T01:12:11;9.40;99.90
1359;DHT22;673;48.098;14.422;2022-10-22T01:14:51;9.30;99.90
1359;DHT22;673;48.098;14.422;2022-10-22T01:17:35;9.30;99.90
1359;DHT22;673;48.098;14.422;2022-10-22T01:20:14;9.30;99.90
1359;DHT22;673;48.098;14.422;2022-10-22T01:22:49;9.30;99.90
1359;DHT22;673;48.098;14.422;2022-10-22T01:25:28;9.40;99.90
1359;DHT22;673;48.098;14.422;2022-10-22T01:28:07;9.40;99.90
1359;DHT22;673;48.098;14.422;2022-10-22T01:30:42;9.30;99.90
1359;DHT22;673;48.098;14.422;2022-10-22T01:33:12;9.30;99.90
1359;DHT22;673;48.098;14.422;2022-10-22T01:35:43;9.20;99.90
1359;DHT22;673;48.098;14.422;2022-10-22T01:38:13;9.20;99.90
1359;DHT22;673;48.098;14.422;2022-10-22T01:40:41;9.10;99.90
1359;DHT22;673;48.098;14.422;2022-10-22T01:43:10;9.00;99.90
1359;DHT22;673;48.098;14.422;2022-10-22T01:45:39;9.00;99.90
1359;DHT22;673;48.098;14.422;2022-10-22T01:48:21;9.00;99.90
1359;DHT22;673;48.098;14.422;2022-10-22T01:51:06;9.00;99.90
1359;DHT22;673;48.098;14.422;2022-10-22T01:53:47;8.90;99.90
1359;DHT22;673;48.098;14.422;2022-10-22T01:56:28;8.90;99.90
1359;DHT22;673;48.098;14.422;2022-10-22T01:59:04;8.90;99.90
1359;DHT22;673;48.098;14.422;2022-10-22T02:01:40;8.90;99.90
1359;DHT22;673;48.098;14.422;2022-10-22T02:04:16;9.00;99.90
1359;DHT22;673;48.098;14.422;2022-10-22T02:06:45;8.90;99.90
1359;DHT22;673;48.098;14.422;2022-10-22T02:09:15;8.90;99.90
1359;DHT22;673;48.098;14.422;2022-10-22T02:11:44;9.00;99.90
1359;DHT22;673;48.098;14.422;2022-10-22T02:14:13;9.00;99.90
1359;DHT22;673;48.098;14.422;2022-10-22T02:16:43;9.10;99.90
1359;DHT22;673;48.098;14.422;2022-10-22T02:19:17;9.10;99.90
1359;DHT22;673;48.098;14.422;2022-10-22T02:21:45;9.20;99.90
1359;DHT22;673;48.098;14.422;2022-10-22T02:24:12;9.20;99.90
1359;DHT22;673;48.098;14.422;2022-10-22T02:26:41;9.20;99.90
1359;DHT22;673;48.098;14.422;2022-10-22T02:29:14;9.30;99.90
1359;DHT22;673;48.098;14.422;2022-10-22T02:31:46;9.40;99.90
1359;DHT22;673;48.098;14.422;2022-10-22T02:34:20;9.30;99.90
1359;DHT22;673;48.098;14.422;2022-10-22T02:36:48;9.20;99.90
1359;DHT22;673;48.098;14.422;2022-10-22T02:39:16;9.20;99.90
1359;DHT22;673;48.098;14.422;2022-10-22T02:41:44;9.20;99.90
1359;DHT22;673;48.098;14.422;2022-10-22T02:44:12;9.30;99.90
1359;DHT22;673;48.098;14.422;2022-10-22T02:46:39;9.30;99.90
1359;DHT22;673;48.098;14.422;2022-10-22T02:49:06;9.20;99.90
1359;DHT22;673;48.098;14.422;2022-10-22T02:51:35;9.10;99.90
1359;DHT22;673;48.098;14.422;2022-10-22T02:54:02;9.20;99.90
1359;DHT22;673;48.098;14.422;2022-10-22T02:56:29;9.10;99.90
1359;DHT22;673;48.098;14.422;2022-10-22T02:58:56;9.00;99.90
1359;DHT22;673;48.098;14.422;2022-10-22T03:01:23;8.90;99.90
1359;DHT22;673;48.098;14.422;2022-10-22T03:03:50;8.80;99.90
1359;DHT22;673;48.098;14.422;2022-10-22T03:06:17;8.80;99.90
1359;DHT22;673;48.098;14.422;2022-10-22T03:08:46;8.70;99.90
1359;DHT22;673;48.098;14.422;2022-10-22T03:11:12;8.80;99.90
1359;DHT22;673;48.098;14.422;2022-10-22T03:13:39;8.80;99.90
1359;DHT22;673;48.098;14.422;2022-10-22T03:16:07;8.80;99.90
1359;DHT22;673;48.098;14.422;2022-10-22T03:18:34;8.70;99.90
1359;DHT22;673;48.098;14.422;2022-10-22T03:21:06;8.70;99.90
1359;DHT22;673;48.098;14.422;2022-10-22T03:23:34;8.70;99.90
1359;DHT22;673;48.098;14.422;2022-10-22T03:26:04;8.70;99.90
1359;DHT22;673;48.098;14.422;2022-10-22T03:28:33;8.70;99.90
1359;DHT22;673;48.098;14.422;2022-10-22T03:31:00;8.80;99.90
1359;DHT22;673;48.098;14.422;2022-10-22T03:33:27;8.80;99.90
1359;DHT22;673;48.098;14.422;2022-10-22T03:35:54;8.90;99.90
1359;DHT22;673;48.098;14.422;2022-10-22T03:38:21;8.90;99.90
1359;DHT22;673;48.098;14.422;2022-10-22T03:40:48;8.80;99.90
1359;DHT22;673;48.098;14.422;2022-10-22T03:43:16;8.80;99.90
1359;DHT22;673;48.098;14.422;2022-10-22T03:45:43;8.80;99.90
1359;DHT22;673;48.098;14.422;2022-10-22T03:48:10;8.80;99.90
1359;DHT22;673;48.098;14.422;2022-10-22T03:50:38;8.80;99.90
1359;DHT22;673;48.098;14.422;2022-10-22T03:53:05;8.70;99.90
1359;DHT22;673;48.098;14.422;2022-10-22T03:55:35;8.70;99.90
1359;DHT22;673;48.098;14.422;2022-10-22T03:58:03;8.50;99.90
1359;DHT22;673;48.098;14.422;2022-10-22T04:00:31;8.50;99.90
1359;DHT22;673;48.098;14.422;2022-10-22T04:02:58;8.60;99.90
1359;DHT22;673;48.098;14.422;2022-10-22T04:05:25;8.60;99.90
1359;DHT22;673;48.098;14.422;2022-10-22T04:07:52;8.60;99.90
1359;DHT22;673;48.098;14.422;2022-10-22T04:10:19;8.60;99.90
1359;DHT22;673;48.098;14.422;2022-10-22T04:12:46;8.60;99.90
1359;DHT22;673;48.098;14.422;2022-10-22T04:15:13;8.50;99.90
1359;DHT22;673;48.098;14.422;2022-10-22T04:17:42;8.50;99.90
1359;DHT22;673;48.098;14.422;2022-10-22T04:20:10;8.50;99.90
1359;DHT22;673;48.098;14.422;2022-10-22T04:22:37;8.40;99.90
1359;DHT22;673;48.098;14.422;2022-10-22T04:25:04;8.40;99.90
1359;DHT22;673;48.098;14.422;2022-10-22T04:27:32;8.50;99.90
1359;DHT22;673;48.098;14.422;2022-10-22T04:30:00;8.50;99.90
1359;DHT22;673;48.098;14.422;2022-10-22T04:32:27;8.50;99.90
1359;DHT22;673;48.098;14.422;2022-10-22T04:34:55;8.60;99.90
1359;DHT22;673;48.098;14.422;2022-10-22T04:37:22;8.60;99.90
1359;DHT22;673;48.098;14.422;2022-10-22T04:39:50;8.60;99.90
1359;DHT22;673;48.098;14.422;2022-10-22T04:42:16;8.50;99.90
1359;DHT22;673;48.098;14.422;2022-10-22T04:44:43;8.60;99.90
1359;DHT22;673;48.098;14.422;2022-10-22T04:47:10;8.70;99.90
1359;DHT22;673;48.098;14.422;2022-10-22T04:49:37;8.70;99.90
1359;DHT22;673;48.098;14.422;2022-10-22T04:52:06;8.70;99.90
1359;DHT22;673;48.098;14.422;2022-10-22T04:54:32;8.70;99.90
1359;DHT22;673;48.098;14.422;2022-10-22T04:56:59;8.80;99.90
1359;DHT22;673;48.098;14.422;2022-10-22T04:59:26;8.80;99.90
1359;DHT22;673;48.098;14.422;2022-10-22T05:01:53;8.90;99.90
1359;DHT22;673;48.098;14.422;2022-10-22T05:04:20;8.90;99.90
1359;DHT22;673;48.098;14.422;2022-10-22T05:06:47;8.90;99.90
1359;DHT22;673;48.098;14.422;2022-10-22T05:09:18;9.00;99.90
1359;DHT22;673;48.098;14.422;2022-10-22T05:11:47;9.10;99.90
1359;DHT22;673;48.098;14.422;2022-10-22T05:14:15;9.10;99.90
1359;DHT22;673;48.098;14.422;2022-10-22T05:16:43;9.10;99.90
1359;DHT22;673;48.098;14.422;2022-10-22T05:19:16;9.10;99.90
1359;DHT22;673;48.098;14.422;2022-10-22T05:21:44;9.20;99.90
1359;DHT22;673;48.098;14.422;2022-10-22T05:24:11;9.20;99.90
1359;DHT22;673;48.098;14.422;2022-10-22T05:26:40;9.20;99.90
1359;DHT22;673;48.098;14.422;2022-10-22T05:29:07;9.20;99.90
1359;DHT22;673;48.098;14.422;2022-10-22T05:31:35;9.20;99.90
1359;DHT22;673;48.098;14.422;2022-10-22T05:34:03;9.30;99.90
1359;DHT22;673;48.098;14.422;2022-10-22T05:36:30;9.40;99.90
1359;DHT22;673;48.098;14.422;2022-10-22T05:38:57;9.40;99.90
1359;DHT22;673;48.098;14.422;2022-10-22T05:41:25;9.50;99.90
1359;DHT22;673;48.098;14.422;2022-10-22T05:43:56;9.50;99.90
1359;DHT22;673;48.098;14.422;2022-10-22T05:46:24;9.50;99.90
1359;DHT22;673;48.098;14.422;2022-10-22T05:48:52;9.60;99.90
1359;DHT22;673;48.098;14.422;2022-10-22T05:51:20;9.60;99.90
1359;DHT22;673;48.098;14.422;2022-10-22T05:53:51;9.60;99.90
1359;DHT22;673;48.098;14.422;2022-10-22T05:56:18;9.70;99.90
1359;DHT22;673;48.098;14.422;2022-10-22T05:58:45;9.70;99.90
1359;DHT22;673;48.098;14.422;2022-10-22T06:01:15;9.70;99.90
1359;DHT22;673;48.098;14.422;2022-10-22T06:03:43;9.70;99.90
1359;DHT22;673;48.098;14.422;2022-10-22T06:06:16;9.70;99.90
1359;DHT22;673;48.098;14.422;2022-10-22T06:08:44;9.70;99.90
1359;DHT22;673;48.098;14.422;2022-10-22T06:11:11;9.70;99.90
1359;DHT22;673;48.098;14.422;2022-10-22T06:13:38;9.80;99.90
1359;DHT22;673;48.098;14.422;2022-10-22T06:16:06;9.80;99.90
1359;DHT22;673;48.098;14.422;2022-10-22T06:18:34;9.90;99.90
1359;DHT22;673;48.098;14.422;2022-10-22T06:21:05;9.80;99.90
1359;DHT22;673;48.098;14.422;2022-10-22T06:23:32;9.90;99.90
1359;DHT22;673;48.098;14.422;2022-10-22T06:25:59;10.00;99.90
1359;DHT22;673;48.098;14.422;2022-10-22T06:28:26;10.00;99.90
1359;DHT22;673;48.098;14.422;2022-10-22T06:30:53;10.00;99.90
1359;DHT22;673;48.098;14.422;2022-10-22T06:33:22;10.20;99.90
1359;DHT22;673;48.098;14.422;2022-10-22T06:35:50;10.30;99.90
1359;DHT22;673;48.098;14.422;2022-10-22T06:38:17;10.40;99.90
1359;DHT22;673;48.098;14.422;2022-10-22T06:40:45;10.50;99.90
1359;DHT22;673;48.098;14.422;2022-10-22T06:43:13;10.60;99.90
1359;DHT22;673;48.098;14.422;2022-10-22T06:45:40;10.70;99.90
1359;DHT22;673;48.098;14.422;2022-10-22T06:48:07;10.80;99.90
1359;DHT22;673;48.098;14.422;2022-10-22T06:50:34;10.90;99.90
1359;DHT22;673;48.098;14.422;2022-10-22T06:53:02;11.10;99.90
1359;DHT22;673;48.098;14.422;2022-10-22T06:55:29;11.10;99.90
1359;DHT22;673;48.098;14.422;2022-10-22T06:57:56;11.30;99.90
1359;DHT22;673;48.098;14.422;2022-10-22T07:00:23;11.40;99.90
1359;DHT22;673;48.098;14.422;2022-10-22T07:02:50;11.50;99.90
1359;DHT22;673;48.098;14.422;2022-10-22T07:05:18;11.60;99.90
1359;DHT22;673;48.098;14.422;2022-10-22T07:07:46;11.70;99.90
1359;DHT22;673;48.098;14.422;2022-10-22T07:10:15;11.80;99.90
1359;DHT22;673;48.098;14.422;2022-10-22T07:12:42;11.90;99.90
1359;DHT22;673;48.098;14.422;2022-10-22T07:15:09;12.00;99.90
1359;DHT22;673;48.098;14.422;2022-10-22T07:17:36;12.10;99.90
1359;DHT22;673;48.098;14.422;2022-10-22T07:20:04;12.20;99.90
1359;DHT22;673;48.098;14.422;2022-10-22T07:22:31;12.30;99.90
1359;DHT22;673;48.098;14.422;2022-10-22T07:24:58;12.40;99.90
1359;DHT22;673;48.098;14.422;2022-10-22T07:27:26;12.50;99.90
1359;DHT22;673;48.098;14.422;2022-10-22T07:29:53;12.60;99.90
1359;DHT22;673;48.098;14.422;2022-10-22T07:32:20;12.70;99.90
1359;DHT22;673;48.098;14.422;2022-10-22T07:34:48;12.80;99.90
1359;DHT22;673;48.098;14.422;2022-10-22T07:37:15;12.90;99.90
1359;DHT22;673;48.098;14.422;2022-10-22T07:39:42;12.90;99.90
1359;DHT22;673;48.098;14.422;2022-10-22T07:42:11;12.90;99.90
1359;DHT22;673;48.098;14.422;2022-10-22T07:44:39;13.10;99.90
1359;DHT22;673;48.098;14.422;2022-10-22T07:47:06;13.20;99.90
1359;DHT22;673;48.098;14.422;2022-10-22T07:49:33;13.20;99.90
1359;DHT22;673;48.098;14.422;2022-10-22T07:52:00;12.80;99.90
1359;DHT22;673;48.098;14.422;2022-10-22T07:54:27;12.40;99.90
1359;DHT22;673;48.098;14.422;2022-10-22T07:56:54;12.30;99.90
1359;DHT22;673;48.098;14.422;2022-10-22T07:59:21;12.20;99.90
1359;DHT22;673;48.098;14.422;2022-10-22T08:01:50;12.10;99.90
1359;DHT22;673;48.098;14.422;2022-10-22T08:04:17;12.20;99.90
1359;DHT22;673;48.098;14.422;2022-10-22T08:06:44;12.40;99.90
1359;DHT22;673;48.098;14.422;2022-10-22T08:09:11;12.40;99.90
1359;DHT22;673;48.098;14.422;2022-10-22T08:11:38;12.20;99.90
1359;DHT22;673;48.098;14.422;2022-10-22T08:14:05;12.30;99.90
1359;DHT22;673;48.098;14.422;2022-10-22T08:16:32;12.30;99.90
1359;DHT22;673;48.098;14.422;2022-10-22T08:19:00;12.20;99.90
1359;DHT22;673;48.098;14.422;2022-10-22T08:21:28;12.10;99.90
1359;DHT22;673;48.098;14.422;2022-10-22T08:23:55;12.10;99.90
1359;DHT22;673;48.098;14.422;2022-10-22T08:26:22;12.10;99.90
1359;DHT22;673;48.098;14.422;2022-10-22T08:28:50;12.10;99.90
1359;DHT22;673;48.098;14.422;2022-10-22T08:31:17;11.80;99.90
1359;DHT22;673;48.098;14.422;2022-10-22T08:33:43;11.70;99.90
1359;DHT22;673;48.098;14.422;2022-10-22T08:36:12;11.80;99.90
1359;DHT22;673;48.098;14.422;2022-10-22T08:38:39;11.80;99.90
1359;DHT22;673;48.098;14.422;2022-10-22T08:41:09;12.00;99.90
1359;DHT22;673;48.098;14.422;2022-10-22T08:43:53;12.10;99.90
1359;DHT22;673;48.098;14.422;2022-10-22T08:46:32;12.10;99.90
1359;DHT22;673;48.098;14.422;2022-10-22T08:49:10;12.10;99.90
1359;DHT22;673;48.098;14.422;2022-10-22T08:51:39;12.20;99.90
1359;DHT22;673;48.098;14.422;2022-10-22T08:54:24;12.30;99.90
1359;DHT22;673;48.098;14.422;2022-10-22T08:57:03;12.70;99.90
1359;DHT22;673;48.098;14.422;2022-10-22T08:59:35;12.90;99.90
1359;DHT22;673;48.098;14.422;2022-10-22T09:02:18;13.30;99.90
1359;DHT22;673;48.098;14.422;2022-10-22T09:04:52;13.50;99.90
1359;DHT22;673;48.098;14.422;2022-10-22T09:07:23;13.50;99.90
1359;DHT22;673;48.098;14.422;2022-10-22T09:09:51;13.70;99.90
1359;DHT22;673;48.098;14.422;2022-10-22T09:12:27;13.70;99.90
1359;DHT22;673;48.098;14.422;2022-10-22T09:14:54;13.60;99.90
1359;DHT22;673;48.098;14.422;2022-10-22T09:17:27;13.60;99.90
1359;DHT22;673;48.098;14.422;2022-10-22T09:20:03;13.20;99.90
1359;DHT22;673;48.098;14.422;2022-10-22T09:22:37;13.20;99.90
1359;DHT22;673;48.098;14.422;2022-10-22T09:25:15;13.30;99.90
1359;DHT22;673;48.098;14.422;2022-10-22T09:27:43;13.10;99.90
1359;DHT22;673;48.098;14.422;2022-10-22T09:30:14;13.10;99.90
1359;DHT22;673;48.098;14.422;2022-10-22T09:32:41;13.10;99.90
1359;DHT22;673;48.098;14.422;2022-10-22T09:35:10;13.20;99.90
1359;DHT22;673;48.098;14.422;2022-10-22T09:37:47;13.30;99.90
1359;DHT22;673;48.098;14.422;2022-10-22T09:40:14;13.30;99.90
1359;DHT22;673;48.098;14.422;2022-10-22T09:42:43;13.30;99.90
1359;DHT22;673;48.098;14.422;2022-10-22T09:45:16;13.40;99.90
1359;DHT22;673;48.098;14.422;2022-10-22T09:47:44;13.30;99.90
1359;DHT22;673;48.098;14.422;2022-10-22T09:50:19;13.40;99.90
1359;DHT22;673;48.098;14.422;2022-10-22T09:52:58;13.50;99.90
1359;DHT22;673;48.098;14.422;2022-10-22T09:55:26;13.50;99.90
1359;DHT22;673;48.098;14.422;2022-10-22T09:57:54;13.50;99.90
1359;DHT22;673;48.098;14.422;2022-10-22T10:00:22;13.60;99.90
1359;DHT22;673;48.098;14.422;2022-10-22T10:02:54;13.60;99.90
1359;DHT22;673;48.098;14.422;2022-10-22T10:05:26;13.70;99.90
1359;DHT22;673;48.098;14.422;2022-10-22T10:07:56;13.80;99.90
1359;DHT22;673;48.098;14.422;2022-10-22T10:10:33;13.90;99.90
1359;DHT22;673;48.098;14.422;2022-10-22T10:13:13;13.90;99.90
1359;DHT22;673;48.098;14.422;2022-10-22T10:15:48;13.90;99.90
1359;DHT22;673;48.098;14.422;2022-10-22T10:18:27;14.00;99.90
1359;DHT22;673;48.098;14.422;2022-10-22T10:21:05;14.00;99.90
1359;DHT22;673;48.098;14.422;2022-10-22T10:23:52;14.10;99.90
1359;DHT22;673;48.098;14.422;2022-10-22T10:26:25;14.10;99.90
1359;DHT22;673;48.098;14.422;2022-10-22T10:29:05;14.20;99.90
1359;DHT22;673;48.098;14.422;2022-10-22T10:31:43;14.20;99.90
1359;DHT22;673;48.098;14.422;2022-10-22T10:34:19;14.30;99.90
1359;DHT22;673;48.098;14.422;2022-10-22T10:36:58;14.30;99.90
1359;DHT22;673;48.098;14.422;2022-10-22T10:39:33;14.30;99.90
1359;DHT22;673;48.098;14.422;2022-10-22T10:42:11;14.30;99.90
1359;DHT22;673;48.098;14.422;2022-10-22T10:44:48;14.30;99.90
1359;DHT22;673;48.098;14.422;2022-10-22T10:47:45;14.20;99.90
1359;DHT22;673;48.098;14.422;2022-10-22T10:50:19;14.20;99.90
1359;DHT22;673;48.098;14.422;2022-10-22T10:52:55;14.10;99.90
1359;DHT22;673;48.098;14.422;2022-10-22T10:55:30;14.10;99.90
1359;DHT22;673;48.098;14.422;2022-10-22T10:58:05;14.10;99.90
1359;DHT22;673;48.098;14.422;2022-10-22T11:00:42;14.10;99.90
1359;DHT22;673;48.098;14.422;2022-10-22T11:03:46;14.10;99.90
1359;DHT22;673;48.098;14.422;2022-10-22T11:06:18;14.10;99.90
1359;DHT22;673;48.098;14.422;2022-10-22T11:08:49;14.20;99.90
1359;DHT22;673;48.098;14.422;2022-10-22T11:11:22;14.20;99.90
1359;DHT22;673;48.098;14.422;2022-10-22T11:13:56;14.20;99.90
1359;DHT22;673;48.098;14.422;2022-10-22T11:16:27;14.20;99.90
1359;DHT22;673;48.098;14.422;2022-10-22T11:19:00;14.20;99.90
1359;DHT22;673;48.098;14.422;2022-10-22T11:21:33;14.10;99.90
1359;DHT22;673;48.098;14.422;2022-10-22T11:24:07;14.10;99.90
1359;DHT22;673;48.098;14.422;2022-10-22T11:26:42;14.10;99.90
1359;DHT22;673;48.098;14.422;2022-10-22T11:29:12;14.20;99.90
1359;DHT22;673;48.098;14.422;2022-10-22T11:31:41;14.20;99.90
1359;DHT22;673;48.098;14.422;2022-10-22T11:34:15;14.20;99.90
1359;DHT22;673;48.098;14.422;2022-10-22T11:36:44;14.20;99.90
1359;DHT22;673;48.098;14.422;2022-10-22T11:39:33;14.20;99.90
1359;DHT22;673;48.098;14.422;2022-10-22T11:42:03;14.20;99.90
1359;DHT22;673;48.098;14.422;2022-10-22T11:44:45;14.10;99.90
1359;DHT22;673;48.098;14.422;2022-10-22T11:47:17;14.10;99.90
1359;DHT22;673;48.098;14.422;2022-10-22T11:49:53;14.00;99.90
1359;DHT22;673;48.098;14.422;2022-10-22T11:52:24;14.00;99.90
1359;DHT22;673;48.098;14.422;2022-10-22T11:54:54;14.00;99.90
1359;DHT22;673;48.098;14.422;2022-10-22T11:57:28;14.00;99.90
1359;DHT22;673;48.098;14.422;2022-10-22T12:00:08;14.00;99.90
1359;DHT22;673;48.098;14.422;2022-10-22T12:02:40;14.00;99.90
1359;DHT22;673;48.098;14.422;2022-10-22T12:05:41;14.10;99.90
1359;DHT22;673;48.098;14.422;2022-10-22T12:08:29;14.10;99.90
1359;DHT22;673;48.098;14.422;2022-10-22T12:11:02;14.20;99.90
1359;DHT22;673;48.098;14.422;2022-10-22T12:13:33;14.20;99.90
1359;DHT22;673;48.098;14.422;2022-10-22T12:16:02;14.40;99.90
1359;DHT22;673;48.098;14.422;2022-10-22T12:18:38;14.50;99.90
1359;DHT22;673;48.098;14.422;2022-10-22T12:21:11;14.70;99.90
1359;DHT22;673;48.098;14.422;2022-10-22T12:23:39;14.80;99.90
1359;DHT22;673;48.098;14.422;2022-10-22T12:26:22;14.80;99.90
1359;DHT22;673;48.098;14.422;2022-10-22T12:28:50;14.90;99.90
1359;DHT22;673;48.098;14.422;2022-10-22T12:31:17;15.00;99.90
1359;DHT22;673;48.098;14.422;2022-10-22T12:33:44;15.10;99.90
1359;DHT22;673;48.098;14.422;2022-10-22T12:36:16;15.30;99.90
1359;DHT22;673;48.098;14.422;2022-10-22T12:38:45;15.20;99.90
1359;DHT22;673;48.098;14.422;2022-10-22T12:41:12;15.00;99.90
1359;DHT22;673;48.098;14.422;2022-10-22T12:43:39;15.10;99.90
1359;DHT22;673;48.098;14.422;2022-10-22T12:46:11;15.10;99.90
1359;DHT22;673;48.098;14.422;2022-10-22T12:48:41;15.00;99.90
1359;DHT22;673;48.098;14.422;2022-10-22T12:51:14;14.90;99.90
1359;DHT22;673;48.098;14.422;2022-10-22T12:53:45;14.90;99.90
1359;DHT22;673;48.098;14.422;2022-10-22T12:56:14;14.90;99.90
1359;DHT22;673;48.098;14.422;2022-10-22T12:58:44;15.00;99.90
1359;DHT22;673;48.098;14.422;2022-10-22T13:01:14;15.00;99.90
1359;DHT22;673;48.098;14.422;2022-10-22T13:03:44;15.00;99.90
1359;DHT22;673;48.098;14.422;2022-10-22T13:06:20;15.10;99.90
1359;DHT22;673;48.098;14.422;2022-10-22T13:08:56;15.30;99.90
1359;DHT22;673;48.098;14.422;2022-10-22T13:11:30;15.30;99.90
1359;DHT22;673;48.098;14.422;2022-10-22T13:14:01;15.30;99.90
1359;DHT22;673;48.098;14.422;2022-10-22T13:16:29;15.30;99.90
1359;DHT22;673;48.098;14.422;2022-10-22T13:18:57;15.30;99.90
1359;DHT22;673;48.098;14.422;2022-10-22T13:21:31;15.40;99.90
1359;DHT22;673;48.098;14.422;2022-10-22T13:24:00;15.30;99.90
1359;DHT22;673;48.098;14.422;2022-10-22T13:26:33;15.30;99.90
1359;DHT22;673;48.098;14.422;2022-10-22T13:29:02;15.30;99.90
1359;DHT22;673;48.098;14.422;2022-10-22T13:31:37;15.40;99.90
1359;DHT22;673;48.098;14.422;2022-10-22T13:34:14;15.50;99.90
1359;DHT22;673;48.098;14.422;2022-10-22T13:36:42;15.40;99.90
1359;DHT22;673;48.098;14.422;2022-10-22T13:39:14;15.50;99.90
1359;DHT22;673;48.098;14.422;2022-10-22T13:41:42;15.60;99.90
1359;DHT22;673;48.098;14.422;2022-10-22T13:44:09;15.60;99.90
1359;DHT22;673;48.098;14.422;2022-10-22T13:46:38;15.60;99.90
1359;DHT22;673;48.098;14.422;2022-10-22T13:49:11;15.60;99.90
1359;DHT22;673;48.098;14.422;2022-10-22T13:51:39;15.60;99.90
1359;DHT22;673;48.098;14.422;2022-10-22T13:54:12;15.50;99.90
1359;DHT22;673;48.098;14.422;2022-10-22T13:56:40;15.50;99.90
1359;DHT22;673;48.098;14.422;2022-10-22T13:59:07;15.50;99.90
1359;DHT22;673;48.098;14.422;2022-10-22T14:01:37;15.50;99.90
1359;DHT22;673;48.098;14.422;2022-10-22T14:04:05;15.40;99.90
1359;DHT22;673;48.098;14.422;2022-10-22T14:06:33;15.40;99.90
1359;DHT22;673;48.098;14.422;2022-10-22T14:09:03;15.40;99.90
1359;DHT22;673;48.098;14.422;2022-10-22T14:11:33;15.40;99.90
1359;DHT22;673;48.098;14.422;2022-10-22T14:14:01;15.30;99.90
1359;DHT22;673;48.098;14.422;2022-10-22T14:16:33;15.30;99.90
1359;DHT22;673;48.098;14.422;2022-10-22T14:19:02;15.20;99.90
1359;DHT22;673;48.098;14.422;2022-10-22T14:21:34;15.20;99.90
1359;DHT22;673;48.098;14.422;2022-10-22T14:24:01;15.20;99.90
1359;DHT22;673;48.098;14.422;2022-10-22T14:26:30;15.20;99.90
1359;DHT22;673;48.098;14.422;2022-10-22T14:28:57;15.20;99.90
1359;DHT22;673;48.098;14.422;2022-10-22T14:31:25;15.20;99.90
1359;DHT22;673;48.098;14.422;2022-10-22T14:33:52;15.20;99.90
1359;DHT22;673;48.098;14.422;2022-10-22T14:36:20;15.10;99.90
1359;DHT22;673;48.098;14.422;2022-10-22T14:38:48;15.10;99.90
1359;DHT22;673;48.098;14.422;2022-10-22T14:41:19;15.10;99.90
1359;DHT22;673;48.098;14.422;2022-10-22T14:43:47;15.10;99.90
1359;DHT22;673;48.098;14.422;2022-10-22T14:46:15;15.20;99.90
1359;DHT22;673;48.098;14.422;2022-10-22T14:48:43;15.20;99.90
1359;DHT22;673;48.098;14.422;2022-10-22T14:51:12;15.30;99.90
1359;DHT22;673;48.098;14.422;2022-10-22T14:53:42;15.40;99.90
1359;DHT22;673;48.098;14.422;2022-10-22T14:56:10;15.50;99.90
1359;DHT22;673;48.098;14.422;2022-10-22T14:58:37;15.50;99.90
1359;DHT22;673;48.098;14.422;2022-10-22T15:01:06;15.50;99.90
1359;DHT22;673;48.098;14.422;2022-10-22T15:03:34;15.40;99.90
1359;DHT22;673;48.098;14.422;2022-10-22T15:06:01;15.40;99.90
1359;DHT22;673;48.098;14.422;2022-10-22T15:08:28;15.30;99.90
1359;DHT22;673;48.098;14.422;2022-10-22T15:11:01;15.20;99.90
1359;DHT22;673;48.098;14.422;2022-10-22T15:13:29;15.10;99.90
1359;DHT22;673;48.098;14.422;2022-10-22T15:15:56;15.10;99.90
1359;DHT22;673;48.098;14.422;2022-10-22T15:18:24;15.00;99.90
1359;DHT22;673;48.098;14.422;2022-10-22T15:20:56;15.10;99.90
1359;DHT22;673;48.098;14.422;2022-10-22T15:23:23;15.10;99.90
1359;DHT22;673;48.098;14.422;2022-10-22T15:25:51;15.10;99.90
1359;DHT22;673;48.098;14.422;2022-10-22T15:28:19;15.10;99.90
1359;DHT22;673;48.098;14.422;2022-10-22T15:30:52;14.90;99.90
1359;DHT22;673;48.098;14.422;2022-10-22T15:33:19;14.90;99.90
1359;DHT22;673;48.098;14.422;2022-10-22T15:35:46;14.80;99.90
1359;DHT22;673;48.098;14.422;2022-10-22T15:38:13;14.70;99.90
1359;DHT22;673;48.098;14.422;2022-10-22T15:40:40;14.60;99.90
1359;DHT22;673;48.098;14.422;2022-10-22T15:43:07;14.50;99.90
1359;DHT22;673;48.098;14.422;2022-10-22T15:45:36;14.40;99.90
1359;DHT22;673;48.098;14.422;2022-10-22T15:48:03;14.30;99.90
1359;DHT22;673;48.098;14.422;2022-10-22T15:50:30;14.20;99.90
1359;DHT22;673;48.098;14.422;2022-10-22T15:52:57;14.10;99.90
1359;DHT22;673;48.098;14.422;2022-10-22T15:55:25;13.90;99.90
1359;DHT22;673;48.098;14.422;2022-10-22T15:57:53;13.80;99.90
1359;DHT22;673;48.098;14.422;2022-10-22T16:00:21;13.70;99.90
1359;DHT22;673;48.098;14.422;2022-10-22T16:02:52;13.60;99.90
1359;DHT22;673;48.098;14.422;2022-10-22T16:05:19;13.60;99.90
1359;DHT22;673;48.098;14.422;2022-10-22T16:07:46;13.60;99.90
1359;DHT22;673;48.098;14.422;2022-10-22T16:10:13;13.60;99.90
1359;DHT22;673;48.098;14.422;2022-10-22T16:12:40;13.60;99.90
1359;DHT22;673;48.098;14.422;2022-10-22T16:15:09;13.60;99.90
1359;DHT22;673;48.098;14.422;2022-10-22T16:17:36;13.70;99.90
1359;DHT22;673;48.098;14.422;2022-10-22T16:20:05;13.70;99.90
1359;DHT22;673;48.098;14.422;2022-10-22T16:22:32;13.60;99.90
1359;DHT22;673;48.098;14.422;2022-10-22T16:25:02;13.60;99.90
1359;DHT22;673;48.098;14.422;2022-10-22T16:27:29;13.60;99.90
1359;DHT22;673;48.098;14.422;2022-10-22T16:29:56;13.50;99.90